sensor_id;sensor_type;location;lat;lon;timestamp;pressure;altitude;pressure_sealevel;temperature;humidity
69713;BME280;56980;51.826;4.424;2022-12-05T00:01:50;101986.69;;;4.75;78.08
69713;BME280;56980;51.826;4.424;2022-12-05T00:04:15;101975.22;;;4.78;78.87
69713;BME280;56980;51.826;4.424;2022-12-05T00:06:41;101990.53;;;4.74;78.89
69713;BME280;56980;51.826;4.424;2022-12-05T00:09:09;101994.47;;;4.88;78.65
69713;BME280;56980;51.826;4.424;2022-12-05T00:11:36;101986.09;;;4.93;78.44
69713;BME280;56980;51.826;4.424;2022-12-05T00:14:03;101986.66;;;4.72;79.03
69713;BME280;56980;51.826;4.424;2022-12-05T00:16:30;101953.47;;;4.50;79.12
69713;BME280;56980;51.826;4.424;2022-12-05T00:18:58;102002.09;;;4.82;78.01
69713;BME280;56980;51.826;4.424;2022-12-05T00:21:31;102001.06;;;4.94;79.26
69713;BME280;56980;51.826;4.424;2022-12-05T00:23:58;102004.50;;;4.91;78.91
69713;BME280;56980;51.826;4.424;2022-12-05T00:26:24;102004.00;;;5.18;77.68
69713;BME280;56980;51.826;4.424;2022-12-05T00:28:50;101996.06;;;4.92;78.32
69713;BME280;56980;51.826;4.424;2022-12-05T00:31:19;101981.34;;;4.75;78.38
69713;BME280;56980;51.826;4.424;2022-12-05T00:33:45;101962.41;;;5.05;77.17
69713;BME280;56980;51.826;4.424;2022-12-05T00:36:13;102009.31;;;5.15;77.02
69713;BME280;56980;51.826;4.424;2022-12-05T00:38:39;101975.94;;;5.16;77.03
69713;BME280;56980;51.826;4.424;2022-12-05T00:41:08;101992.34;;;5.04;77.40
69713;BME280;56980;51.826;4.424;2022-12-05T00:43:34;102000.91;;;5.20;77.14
69713;BME280;56980;51.826;4.424;2022-12-05T00:46:04;101992.47;;;5.18;77.35
69713;BME280;56980;51.826;4.424;2022-12-05T00:48:30;102009.19;;;5.48;76.91
69713;BME280;56980;51.826;4.424;2022-12-05T00:51:04;101999.28;;;5.59;76.19
69713;BME280;56980;51.826;4.424;2022-12-05T00:53:30;101994.09;;;5.30;76.49
69713;BME280;56980;51.826;4.424;2022-12-05T00:55:56;101990.34;;;5.41;76.08
69713;BME280;56980;51.826;4.424;2022-12-05T00:58:22;101988.97;;;5.14;77.38
69713;BME280;56980;51.826;4.424;2022-12-05T01:00:48;101989.03;;;4.81;78.69
69713;BME280;56980;51.826;4.424;2022-12-05T01:03:13;101983.97;;;5.12;77.81
69713;BME280;56980;51.826;4.424;2022-12-05T01:05:39;102000.13;;;5.16;77.95
69713;BME280;56980;51.826;4.424;2022-12-05T01:08:04;101962.09;;;5.10;76.88
69713;BME280;56980;51.826;4.424;2022-12-05T01:10:29;101913.59;;;4.52;77.32
69713;BME280;56980;51.826;4.424;2022-12-05T01:12:55;101963.16;;;5.06;77.50
69713;BME280;56980;51.826;4.424;2022-12-05T01:15:20;101963.88;;;4.96;77.75
69713;BME280;56980;51.826;4.424;2022-12-05T01:17:46;101980.94;;;5.17;77.54
69713;BME280;56980;51.826;4.424;2022-12-05T01:20:11;101993.06;;;5.45;76.41
69713;BME280;56980;51.826;4.424;2022-12-05T01:22:36;101995.50;;;5.68;76.38
69713;BME280;56980;51.826;4.424;2022-12-05T01:25:02;101989.84;;;5.87;75.16
69713;BME280;56980;51.826;4.424;2022-12-05T01:27:29;101985.41;;;6.16;74.55
69713;BME280;56980;51.826;4.424;2022-12-05T01:29:54;101990.94;;;6.58;73.01
69713;BME280;56980;51.826;4.424;2022-12-05T01:32:20;101982.41;;;6.35;72.96
69713;BME280;56980;51.826;4.424;2022-12-05T01:34:45;101990.84;;;6.30;73.01
69713;BME280;56980;51.826;4.424;2022-12-05T01:37:10;102001.34;;;6.74;71.48
69713;BME280;56980;51.826;4.424;2022-12-05T01:39:36;101994.75;;;6.47;72.57
69713;BME280;56980;51.826;4.424;2022-12-05T01:42:03;101978.66;;;6.71;70.97
69713;BME280;56980;51.826;4.424;2022-12-05T01:46:54;101986.78;;;7.07;69.83
69713;BME280;56980;51.826;4.424;2022-12-05T01:49:27;101996.38;;;6.90;70.67
69713;BME280;56980;51.826;4.424;2022-12-05T01:52:02;101973.69;;;7.27;69.20
69713;BME280;56980;51.826;4.424;2022-12-05T01:54:28;101985.44;;;6.23;72.48
69713;BME280;56980;51.826;4.424;2022-12-05T01:57:01;102000.25;;;7.10;70.18
69713;BME280;56980;51.826;4.424;2022-12-05T01:59:31;102004.41;;;6.62;71.12
69713;BME280;56980;51.826;4.424;2022-12-05T02:01:58;102005.28;;;7.33;68.79
69713;BME280;56980;51.826;4.424;2022-12-05T02:04:24;102003.78;;;4.97;77.08
69713;BME280;56980;51.826;4.424;2022-12-05T02:06:52;102012.16;;;4.22;81.71
69713;BME280;56980;51.826;4.424;2022-12-05T02:09:17;102005.34;;;4.28;82.43
69713;BME280;56980;51.826;4.424;2022-12-05T02:11:52;102007.53;;;4.19;83.47
69713;BME280;56980;51.826;4.424;2022-12-05T02:17:18;102015.09;;;4.10;83.79
69713;BME280;56980;51.826;4.424;2022-12-05T02:31:01;102004.47;;;4.50;82.57
69713;BME280;56980;51.826;4.424;2022-12-05T02:33:39;101954.34;;;3.94;83.83
69713;BME280;56980;51.826;4.424;2022-12-05T02:36:35;101994.53;;;4.21;84.13
69713;BME280;56980;51.826;4.424;2022-12-05T02:39:13;101958.16;;;3.93;84.27
69713;BME280;56980;51.826;4.424;2022-12-05T02:41:52;101962.66;;;4.16;83.36
69713;BME280;56980;51.826;4.424;2022-12-05T02:44:21;102011.59;;;4.39;83.33
69713;BME280;56980;51.826;4.424;2022-12-05T02:46:51;101938.75;;;4.04;82.56
69713;BME280;56980;51.826;4.424;2022-12-05T02:49:22;101983.63;;;4.40;82.65
69713;BME280;56980;51.826;4.424;2022-12-05T02:51:52;101958.59;;;4.29;82.75
69713;BME280;56980;51.826;4.424;2022-12-05T02:54:22;101925.63;;;3.95;82.43
69713;BME280;56980;51.826;4.424;2022-12-05T02:56:51;101924.41;;;3.89;82.70
69713;BME280;56980;51.826;4.424;2022-12-05T02:59:16;101972.88;;;4.07;83.11
69713;BME280;56980;51.826;4.424;2022-12-05T03:01:44;101984.84;;;4.46;82.80
69713;BME280;56980;51.826;4.424;2022-12-05T03:04:11;102006.22;;;4.39;83.62
69713;BME280;56980;51.826;4.424;2022-12-05T03:06:51;102008.75;;;4.58;82.79
69713;BME280;56980;51.826;4.424;2022-12-05T03:09:19;102012.88;;;4.49;82.99
69713;BME280;56980;51.826;4.424;2022-12-05T03:12:10;102008.81;;;4.62;82.88
69713;BME280;56980;51.826;4.424;2022-12-05T03:14:50;102015.56;;;4.49;83.03
69713;BME280;56980;51.826;4.424;2022-12-05T03:17:22;102017.63;;;4.62;82.89
69713;BME280;56980;51.826;4.424;2022-12-05T03:20:02;102015.75;;;4.66;83.10
69713;BME280;56980;51.826;4.424;2022-12-05T03:22:32;102022.19;;;4.58;83.43
69713;BME280;56980;51.826;4.424;2022-12-05T03:25:00;102018.84;;;4.68;82.62
69713;BME280;56980;51.826;4.424;2022-12-05T03:30:17;102020.53;;;4.84;82.19
69713;BME280;56980;51.826;4.424;2022-12-05T03:35:19;102020.91;;;4.82;82.61
69713;BME280;56980;51.826;4.424;2022-12-05T03:37:51;102017.44;;;4.82;82.50
69713;BME280;56980;51.826;4.424;2022-12-05T03:40:33;102024.72;;;4.77;83.24
69713;BME280;56980;51.826;4.424;2022-12-05T03:45:56;102013.88;;;4.70;83.20
69713;BME280;56980;51.826;4.424;2022-12-05T03:51:04;102022.66;;;4.67;83.51
69713;BME280;56980;51.826;4.424;2022-12-05T03:53:43;102014.41;;;4.83;83.15
69713;BME280;56980;51.826;4.424;2022-12-05T03:56:14;102033.84;;;4.73;83.51
69713;BME280;56980;51.826;4.424;2022-12-05T03:58:48;102015.03;;;4.69;83.50
69713;BME280;56980;51.826;4.424;2022-12-05T04:01:17;102030.53;;;4.87;83.23
69713;BME280;56980;51.826;4.424;2022-12-05T04:03:48;102034.97;;;4.68;83.96
69713;BME280;56980;51.826;4.424;2022-12-05T04:06:23;102039.28;;;4.76;84.06
69713;BME280;56980;51.826;4.424;2022-12-05T04:08:57;102036.59;;;4.76;84.13
69713;BME280;56980;51.826;4.424;2022-12-05T04:11:26;102036.75;;;4.57;84.82
69713;BME280;56980;51.826;4.424;2022-12-05T04:14:00;102040.25;;;4.61;85.35
69713;BME280;56980;51.826;4.424;2022-12-05T04:16:32;102036.50;;;4.69;85.20
69713;BME280;56980;51.826;4.424;2022-12-05T04:19:47;102048.13;;;4.81;84.66
69713;BME280;56980;51.826;4.424;2022-12-05T04:22:34;102041.13;;;4.72;85.21
69713;BME280;56980;51.826;4.424;2022-12-05T04:25:02;102021.97;;;4.74;84.73
69713;BME280;56980;51.826;4.424;2022-12-05T04:30:37;102030.69;;;4.64;86.10
69713;BME280;56980;51.826;4.424;2022-12-05T04:33:14;102036.50;;;4.69;86.13
69713;BME280;56980;51.826;4.424;2022-12-05T04:35:45;102041.03;;;4.65;86.51
69713;BME280;56980;51.826;4.424;2022-12-05T04:38:18;102045.69;;;4.68;86.30
69713;BME280;56980;51.826;4.424;2022-12-05T04:40:48;102041.88;;;4.69;87.30
69713;BME280;56980;51.826;4.424;2022-12-05T04:43:17;102040.28;;;4.65;87.06
69713;BME280;56980;51.826;4.424;2022-12-05T04:45:45;102030.88;;;4.48;87.88
69713;BME280;56980;51.826;4.424;2022-12-05T04:48:14;102000.25;;;4.53;87.51
69713;BME280;56980;51.826;4.424;2022-12-05T04:50:44;102044.13;;;4.64;88.09
69713;BME280;56980;51.826;4.424;2022-12-05T04:53:11;102042.91;;;4.58;88.11
69713;BME280;56980;51.826;4.424;2022-12-05T04:55:41;102025.28;;;4.60;88.10
69713;BME280;56980;51.826;4.424;2022-12-05T04:58:10;102054.84;;;4.64;88.43
69713;BME280;56980;51.826;4.424;2022-12-05T05:00:49;102003.34;;;4.51;87.89
69713;BME280;56980;51.826;4.424;2022-12-05T05:03:29;102016.50;;;4.63;87.40
69713;BME280;56980;51.826;4.424;2022-12-05T05:05:56;102003.47;;;4.65;86.87
69713;BME280;56980;51.826;4.424;2022-12-05T05:08:24;101965.09;;;4.28;87.19
69713;BME280;56980;51.826;4.424;2022-12-05T05:11:00;102014.59;;;4.67;87.45
69713;BME280;56980;51.826;4.424;2022-12-05T05:13:28;102002.59;;;4.54;87.88
69713;BME280;56980;51.826;4.424;2022-12-05T05:15:53;101958.78;;;4.13;88.09
69713;BME280;56980;51.826;4.424;2022-12-05T05:18:19;102036.09;;;4.67;87.93
69713;BME280;56980;51.826;4.424;2022-12-05T05:20:45;102040.06;;;4.81;87.67
69713;BME280;56980;51.826;4.424;2022-12-05T05:23:10;101980.66;;;4.15;88.60
69713;BME280;56980;51.826;4.424;2022-12-05T05:25:36;101973.41;;;4.16;88.66
69713;BME280;56980;51.826;4.424;2022-12-05T05:28:01;102040.31;;;4.68;88.37
69713;BME280;56980;51.826;4.424;2022-12-05T05:30:27;102020.06;;;4.41;88.56
69713;BME280;56980;51.826;4.424;2022-12-05T05:32:52;102042.38;;;4.82;87.95
69713;BME280;56980;51.826;4.424;2022-12-05T05:35:18;102058.94;;;4.88;87.43
69713;BME280;56980;51.826;4.424;2022-12-05T05:37:44;102033.16;;;4.46;88.39
69713;BME280;56980;51.826;4.424;2022-12-05T05:40:11;102014.06;;;4.51;87.76
69713;BME280;56980;51.826;4.424;2022-12-05T05:42:41;102056.66;;;4.90;87.68
69713;BME280;56980;51.826;4.424;2022-12-05T05:45:08;102065.88;;;4.89;87.75
69713;BME280;56980;51.826;4.424;2022-12-05T05:47:33;102054.56;;;4.72;88.34
69713;BME280;56980;51.826;4.424;2022-12-05T05:49:58;102061.28;;;4.89;88.31
69713;BME280;56980;51.826;4.424;2022-12-05T05:52:24;102061.28;;;4.93;87.65
69713;BME280;56980;51.826;4.424;2022-12-05T05:54:49;102058.88;;;4.81;88.26
69713;BME280;56980;51.826;4.424;2022-12-05T05:57:15;102057.72;;;4.82;88.32
69713;BME280;56980;51.826;4.424;2022-12-05T05:59:40;102020.06;;;4.41;89.25
69713;BME280;56980;51.826;4.424;2022-12-05T06:02:05;102062.31;;;4.81;89.76
69713;BME280;56980;51.826;4.424;2022-12-05T06:04:33;102055.78;;;4.78;89.11
69713;BME280;56980;51.826;4.424;2022-12-05T06:06:59;102032.56;;;4.60;88.99
69713;BME280;56980;51.826;4.424;2022-12-05T06:09:24;102062.13;;;4.97;88.84
69713;BME280;56980;51.826;4.424;2022-12-05T06:11:49;102031.66;;;4.86;88.27
69713;BME280;56980;51.826;4.424;2022-12-05T06:14:15;102072.03;;;4.93;89.10
69713;BME280;56980;51.826;4.424;2022-12-05T06:16:40;102079.00;;;4.97;89.10
69713;BME280;56980;51.826;4.424;2022-12-05T06:19:05;102023.56;;;4.45;89.32
69713;BME280;56980;51.826;4.424;2022-12-05T06:21:31;102077.09;;;4.98;89.41
69713;BME280;56980;51.826;4.424;2022-12-05T06:23:56;102013.41;;;4.65;89.04
69713;BME280;56980;51.826;4.424;2022-12-05T06:26:22;102069.50;;;5.07;88.80
69713;BME280;56980;51.826;4.424;2022-12-05T06:28:47;102063.75;;;5.05;88.73
69713;BME280;56980;51.826;4.424;2022-12-05T06:31:16;102048.03;;;4.73;90.05
69713;BME280;56980;51.826;4.424;2022-12-05T06:33:42;102048.91;;;4.81;89.16
69713;BME280;56980;51.826;4.424;2022-12-05T06:36:10;102051.16;;;4.75;89.79
69713;BME280;56980;51.826;4.424;2022-12-05T06:38:36;102026.50;;;4.66;90.02
69713;BME280;56980;51.826;4.424;2022-12-05T06:41:07;102075.28;;;5.09;89.38
69713;BME280;56980;51.826;4.424;2022-12-05T06:43:33;102053.56;;;4.88;89.14
69713;BME280;56980;51.826;4.424;2022-12-05T06:46:03;102086.88;;;5.16;88.87
69713;BME280;56980;51.826;4.424;2022-12-05T06:48:28;102044.44;;;4.96;88.71
69713;BME280;56980;51.826;4.424;2022-12-05T06:50:53;102060.91;;;4.91;88.83
69713;BME280;56980;51.826;4.424;2022-12-05T06:53:19;102075.66;;;5.07;89.17
69713;BME280;56980;51.826;4.424;2022-12-05T06:55:55;102082.69;;;4.86;89.53
69713;BME280;56980;51.826;4.424;2022-12-05T06:58:20;102042.59;;;4.66;89.74
69713;BME280;56980;51.826;4.424;2022-12-05T07:00:46;102100.59;;;5.04;89.61
69713;BME280;56980;51.826;4.424;2022-12-05T07:03:30;102094.16;;;5.16;89.11
69713;BME280;56980;51.826;4.424;2022-12-05T07:05:55;102097.78;;;5.31;88.58
69713;BME280;56980;51.826;4.424;2022-12-05T07:08:23;102042.91;;;4.95;88.48
69713;BME280;56980;51.826;4.424;2022-12-05T07:10:50;102061.81;;;5.05;88.71
69713;BME280;56980;51.826;4.424;2022-12-05T07:13:16;102079.47;;;5.06;89.00
69713;BME280;56980;51.826;4.424;2022-12-05T07:15:41;102084.13;;;5.13;88.77
69713;BME280;56980;51.826;4.424;2022-12-05T07:18:07;102103.03;;;5.20;89.00
69713;BME280;56980;51.826;4.424;2022-12-05T07:20:32;102081.06;;;5.11;89.34
69713;BME280;56980;51.826;4.424;2022-12-05T07:22:58;102098.34;;;5.10;89.31
69713;BME280;56980;51.826;4.424;2022-12-05T07:25:23;102104.31;;;5.33;88.88
69713;BME280;56980;51.826;4.424;2022-12-05T07:27:49;102022.66;;;4.67;88.35
69713;BME280;56980;51.826;4.424;2022-12-05T07:30:14;102086.91;;;5.20;88.79
69713;BME280;56980;51.826;4.424;2022-12-05T07:32:40;102074.50;;;5.08;88.94
69713;BME280;56980;51.826;4.424;2022-12-05T07:35:05;102067.22;;;5.09;88.61
69713;BME280;56980;51.826;4.424;2022-12-05T07:37:31;102056.06;;;5.07;88.63
69713;BME280;56980;51.826;4.424;2022-12-05T07:39:57;102031.94;;;4.73;89.05
69713;BME280;56980;51.826;4.424;2022-12-05T07:42:22;102028.25;;;4.89;89.01
69713;BME280;56980;51.826;4.424;2022-12-05T07:44:47;102096.94;;;5.23;89.33
69713;BME280;56980;51.826;4.424;2022-12-05T07:47:13;102067.63;;;5.11;88.77
69713;BME280;56980;51.826;4.424;2022-12-05T07:49:38;102116.19;;;5.32;88.46
69713;BME280;56980;51.826;4.424;2022-12-05T07:52:04;102066.94;;;5.21;88.13
69713;BME280;56980;51.826;4.424;2022-12-05T07:54:29;102081.53;;;5.20;88.06
69713;BME280;56980;51.826;4.424;2022-12-05T07:56:54;102084.69;;;5.29;88.48
69713;BME280;56980;51.826;4.424;2022-12-05T07:59:20;102089.72;;;5.31;88.24
69713;BME280;56980;51.826;4.424;2022-12-05T08:01:45;102098.47;;;5.24;88.20
69713;BME280;56980;51.826;4.424;2022-12-05T08:04:11;102059.47;;;5.00;88.81
69713;BME280;56980;51.826;4.424;2022-12-05T08:06:36;102103.59;;;5.40;88.43
69713;BME280;56980;51.826;4.424;2022-12-05T08:09:02;102110.28;;;5.56;87.62
69713;BME280;56980;51.826;4.424;2022-12-05T08:11:32;102125.31;;;5.61;87.85
69713;BME280;56980;51.826;4.424;2022-12-05T08:14:02;102131.38;;;5.54;88.95
69713;BME280;56980;51.826;4.424;2022-12-05T08:16:34;102126.19;;;5.32;89.05
69713;BME280;56980;51.826;4.424;2022-12-05T08:19:02;102061.22;;;4.86;89.60
69713;BME280;56980;51.826;4.424;2022-12-05T08:21:28;102066.03;;;5.06;88.95
69713;BME280;56980;51.826;4.424;2022-12-05T09:14:16;102158.47;;;6.23;86.74
69713;BME280;56980;51.826;4.424;2022-12-05T09:16:43;102168.47;;;6.19;86.80
69713;BME280;56980;51.826;4.424;2022-12-05T09:19:12;102140.72;;;6.12;86.66
69713;BME280;56980;51.826;4.424;2022-12-05T09:21:39;102147.66;;;6.13;86.74
69713;BME280;56980;51.826;4.424;2022-12-05T09:24:05;102151.31;;;5.90;87.02
69713;BME280;56980;51.826;4.424;2022-12-05T09:26:30;102165.94;;;5.93;86.94
69713;BME280;56980;51.826;4.424;2022-12-05T09:28:57;102107.91;;;5.48;87.23
69713;BME280;56980;51.826;4.424;2022-12-05T09:37:47;102148.97;;;5.85;87.00
69713;BME280;56980;51.826;4.424;2022-12-05T10:22:42;102136.75;;;5.95;85.51
69713;BME280;56980;51.826;4.424;2022-12-05T10:40:04;102167.44;;;6.42;84.79
69713;BME280;56980;51.826;4.424;2022-12-05T10:42:34;102188.56;;;6.32;85.12
69713;BME280;56980;51.826;4.424;2022-12-05T10:45:07;102151.56;;;6.22;85.31
69713;BME280;56980;51.826;4.424;2022-12-05T10:47:37;102168.16;;;6.35;85.20
69713;BME280;56980;51.826;4.424;2022-12-05T10:50:37;102113.78;;;6.08;84.87
69713;BME280;56980;51.826;4.424;2022-12-05T10:53:04;102108.59;;;5.85;85.38
69713;BME280;56980;51.826;4.424;2022-12-05T10:55:35;102183.28;;;6.54;85.06
69713;BME280;56980;51.826;4.424;2022-12-05T10:58:27;102194.88;;;6.61;84.47
69713;BME280;56980;51.826;4.424;2022-12-05T11:00:57;102192.53;;;6.53;85.11
69713;BME280;56980;51.826;4.424;2022-12-05T11:03:33;102170.84;;;6.31;85.61
69713;BME280;56980;51.826;4.424;2022-12-05T11:06:02;102176.53;;;6.19;86.63
69713;BME280;56980;51.826;4.424;2022-12-05T11:08:38;102143.88;;;6.24;85.41
69713;BME280;56980;51.826;4.424;2022-12-05T11:11:06;102136.94;;;6.23;85.24
69713;BME280;56980;51.826;4.424;2022-12-05T11:13:33;102182.84;;;6.45;86.20
69713;BME280;56980;51.826;4.424;2022-12-05T11:16:00;102168.19;;;6.39;85.68
69713;BME280;56980;51.826;4.424;2022-12-05T11:18:31;102143.06;;;6.20;86.32
69713;BME280;56980;51.826;4.424;2022-12-05T11:21:11;102151.69;;;6.44;85.84
69713;BME280;56980;51.826;4.424;2022-12-05T11:23:45;102143.06;;;6.20;86.70
69713;BME280;56980;51.826;4.424;2022-12-05T11:26:34;102184.41;;;6.49;86.78
69713;BME280;56980;51.826;4.424;2022-12-05T11:29:01;102164.69;;;6.34;86.59
69713;BME280;56980;51.826;4.424;2022-12-05T11:31:29;102104.56;;;6.09;86.15
69713;BME280;56980;51.826;4.424;2022-12-05T11:34:15;102160.13;;;6.42;86.19
69713;BME280;56980;51.826;4.424;2022-12-05T11:48:09;102134.75;;;6.40;85.60
69713;BME280;56980;51.826;4.424;2022-12-05T11:53:41;102188.00;;;6.71;85.96
69713;BME280;56980;51.826;4.424;2022-12-05T11:56:30;102189.44;;;6.51;86.92
69713;BME280;56980;51.826;4.424;2022-12-05T12:01:55;102196.16;;;6.89;86.01
69713;BME280;56980;51.826;4.424;2022-12-05T12:13:15;102195.81;;;6.97;85.81
69713;BME280;56980;51.826;4.424;2022-12-05T12:15:50;102199.22;;;6.87;85.81
69713;BME280;56980;51.826;4.424;2022-12-05T12:18:59;102129.38;;;6.47;85.22
69713;BME280;56980;51.826;4.424;2022-12-05T12:21:52;102192.78;;;7.06;85.09
69713;BME280;56980;51.826;4.424;2022-12-05T12:37:58;102144.09;;;6.63;85.37
69713;BME280;56980;51.826;4.424;2022-12-05T12:50:54;102154.13;;;6.66;85.01
69713;BME280;56980;51.826;4.424;2022-12-05T12:56:31;102165.63;;;6.63;85.14
69713;BME280;56980;51.826;4.424;2022-12-05T12:59:26;102177.34;;;6.92;85.11
69713;BME280;56980;51.826;4.424;2022-12-05T13:07:17;102156.38;;;6.61;85.16
69713;BME280;56980;51.826;4.424;2022-12-05T13:10:00;102178.88;;;6.93;85.16
69713;BME280;56980;51.826;4.424;2022-12-05T13:12:29;102147.97;;;6.66;84.13
69713;BME280;56980;51.826;4.424;2022-12-05T13:15:00;102178.41;;;6.77;84.65
69713;BME280;56980;51.826;4.424;2022-12-05T13:17:28;102168.84;;;6.90;84.00
69713;BME280;56980;51.826;4.424;2022-12-05T13:19:55;102159.25;;;6.93;83.57
69713;BME280;56980;51.826;4.424;2022-12-05T13:22:23;102179.66;;;6.97;84.39
69713;BME280;56980;51.826;4.424;2022-12-05T13:24:50;102178.56;;;7.12;83.53
69713;BME280;56980;51.826;4.424;2022-12-05T13:27:18;102142.66;;;6.87;83.33
69713;BME280;56980;51.826;4.424;2022-12-05T13:32:34;102172.78;;;7.07;83.66
69713;BME280;56980;51.826;4.424;2022-12-05T13:35:08;102175.81;;;6.98;84.19
69713;BME280;56980;51.826;4.424;2022-12-05T13:37:35;102154.19;;;6.84;84.72
69713;BME280;56980;51.826;4.424;2022-12-05T13:40:50;102174.28;;;7.08;84.64
69713;BME280;56980;51.826;4.424;2022-12-05T13:43:40;102154.88;;;6.67;85.18
69713;BME280;56980;51.826;4.424;2022-12-05T13:46:08;102171.16;;;6.92;84.76
69713;BME280;56980;51.826;4.424;2022-12-05T13:48:46;102161.16;;;6.92;84.88
69713;BME280;56980;51.826;4.424;2022-12-05T13:53:47;102155.34;;;6.83;85.15
69713;BME280;56980;51.826;4.424;2022-12-05T14:09:00;102151.84;;;6.75;84.61
69713;BME280;56980;51.826;4.424;2022-12-05T14:11:25;102147.97;;;6.69;84.27
69713;BME280;56980;51.826;4.424;2022-12-05T14:13:51;102178.81;;;6.79;84.75
69713;BME280;56980;51.826;4.424;2022-12-05T14:21:23;102161.50;;;6.80;84.10
69713;BME280;56980;51.826;4.424;2022-12-05T14:32:27;102184.22;;;6.83;83.95
69713;BME280;56980;51.826;4.424;2022-12-05T14:35:09;102193.16;;;7.04;83.35
69713;BME280;56980;51.826;4.424;2022-12-05T14:37:38;102181.88;;;6.78;84.45
69713;BME280;56980;51.826;4.424;2022-12-05T14:40:34;102171.91;;;6.85;84.08
69713;BME280;56980;51.826;4.424;2022-12-05T14:48:38;102185.13;;;7.19;82.61
69713;BME280;56980;51.826;4.424;2022-12-05T14:54:06;102203.94;;;7.08;82.99
69713;BME280;56980;51.826;4.424;2022-12-05T14:56:40;102198.19;;;7.09;82.81
69713;BME280;56980;51.826;4.424;2022-12-05T15:01:47;102192.34;;;6.93;83.23
69713;BME280;56980;51.826;4.424;2022-12-05T15:06:56;102205.78;;;6.86;83.28
69713;BME280;56980;51.826;4.424;2022-12-05T15:12:28;102208.91;;;6.92;82.71
69713;BME280;56980;51.826;4.424;2022-12-05T15:22:58;102212.06;;;7.15;82.50
69713;BME280;56980;51.826;4.424;2022-12-05T15:25:30;102209.63;;;6.85;83.04
69713;BME280;56980;51.826;4.424;2022-12-05T15:28:00;102219.69;;;6.95;82.53
69713;BME280;56980;51.826;4.424;2022-12-05T15:30:27;102191.84;;;6.70;83.13
69713;BME280;56980;51.826;4.424;2022-12-05T15:32:53;102204.28;;;6.92;82.82
69713;BME280;56980;51.826;4.424;2022-12-05T15:35:18;102207.63;;;6.75;83.16
69713;BME280;56980;51.826;4.424;2022-12-05T15:40:13;102217.81;;;7.06;82.62
69713;BME280;56980;51.826;4.424;2022-12-05T15:42:45;102219.69;;;6.95;82.84
69713;BME280;56980;51.826;4.424;2022-12-05T15:47:41;102212.72;;;6.91;82.60
69713;BME280;56980;51.826;4.424;2022-12-05T15:50:49;102222.00;;;6.93;83.09
69713;BME280;56980;51.826;4.424;2022-12-05T15:53:46;102219.25;;;6.86;82.14
69713;BME280;56980;51.826;4.424;2022-12-05T15:58:59;102230.41;;;6.88;82.89
69713;BME280;56980;51.826;4.424;2022-12-05T16:01:27;102229.59;;;6.77;83.06
69713;BME280;56980;51.826;4.424;2022-12-05T16:04:17;102228.84;;;6.80;83.08
69713;BME280;56980;51.826;4.424;2022-12-05T16:06:47;102199.88;;;6.63;83.41
69713;BME280;56980;51.826;4.424;2022-12-05T16:09:19;102224.25;;;6.84;83.23
69713;BME280;56980;51.826;4.424;2022-12-05T16:11:59;102223.09;;;6.85;82.58
69713;BME280;56980;51.826;4.424;2022-12-05T16:14:33;102215.75;;;6.82;82.75
69713;BME280;56980;51.826;4.424;2022-12-05T16:17:00;102230.41;;;6.88;83.21
69713;BME280;56980;51.826;4.424;2022-12-05T16:19:27;102224.25;;;6.88;83.26
69713;BME280;56980;51.826;4.424;2022-12-05T16:22:07;102227.41;;;7.00;83.23
69713;BME280;56980;51.826;4.424;2022-12-05T16:24:59;102233.56;;;6.97;83.58
69713;BME280;56980;51.826;4.424;2022-12-05T16:27:28;102227.63;;;6.70;84.23
69713;BME280;56980;51.826;4.424;2022-12-05T16:32:37;102238.94;;;6.97;83.13
69713;BME280;56980;51.826;4.424;2022-12-05T16:35:55;102216.16;;;6.84;83.62
69713;BME280;56980;51.826;4.424;2022-12-05T16:38:22;102232.00;;;6.96;83.65
69713;BME280;56980;51.826;4.424;2022-12-05T16:40:51;102222.38;;;6.95;83.15
69713;BME280;56980;51.826;4.424;2022-12-05T16:48:38;102236.22;;;6.87;84.43
69713;BME280;56980;51.826;4.424;2022-12-05T16:53:35;102232.78;;;6.93;84.34
69713;BME280;56980;51.826;4.424;2022-12-05T16:56:02;102229.16;;;6.68;85.37
69713;BME280;56980;51.826;4.424;2022-12-05T16:58:30;102189.06;;;6.56;85.32
69713;BME280;56980;51.826;4.424;2022-12-05T17:01:00;102227.38;;;6.93;84.68
69713;BME280;56980;51.826;4.424;2022-12-05T17:03:26;102236.25;;;6.97;84.69
69713;BME280;56980;51.826;4.424;2022-12-05T17:05:53;102234.78;;;7.10;84.70
69713;BME280;56980;51.826;4.424;2022-12-05T17:08:18;102207.34;;;6.91;84.59
69713;BME280;56980;51.826;4.424;2022-12-05T17:10:44;102209.22;;;6.83;84.79
69713;BME280;56980;51.826;4.424;2022-12-05T17:13:13;102244.34;;;7.01;85.25
69713;BME280;56980;51.826;4.424;2022-12-05T17:15:39;102243.56;;;6.97;85.64
69713;BME280;56980;51.826;4.424;2022-12-05T17:18:13;102239.66;;;6.84;85.73
69713;BME280;56980;51.826;4.424;2022-12-05T17:20:41;102249.31;;;6.95;85.48
69713;BME280;56980;51.826;4.424;2022-12-05T17:23:12;102245.53;;;7.03;85.11
69713;BME280;56980;51.826;4.424;2022-12-05T17:25:41;102237.34;;;6.86;84.92
69713;BME280;56980;51.826;4.424;2022-12-05T17:28:08;102225.75;;;6.82;85.11
69713;BME280;56980;51.826;4.424;2022-12-05T17:30:33;102228.75;;;6.62;85.46
69713;BME280;56980;51.826;4.424;2022-12-05T17:32:58;102248.81;;;6.72;85.81
69713;BME280;56980;51.826;4.424;2022-12-05T17:35:27;102241.19;;;6.85;85.43
69713;BME280;56980;51.826;4.424;2022-12-05T17:37:53;102263.59;;;6.99;85.07
69713;BME280;56980;51.826;4.424;2022-12-05T17:40:18;102216.94;;;6.85;84.70
69713;BME280;56980;51.826;4.424;2022-12-05T17:42:44;102258.25;;;7.06;85.11
69713;BME280;56980;51.826;4.424;2022-12-05T17:45:12;102263.53;;;6.85;85.76
69713;BME280;56980;51.826;4.424;2022-12-05T17:47:37;102241.28;;;7.02;84.63
69713;BME280;56980;51.826;4.424;2022-12-05T17:50:04;102262.47;;;7.07;84.77
69713;BME280;56980;51.826;4.424;2022-12-05T17:52:29;102254.38;;;7.07;84.57
69713;BME280;56980;51.826;4.424;2022-12-05T17:54:55;102261.31;;;7.05;84.85